KPOC

La Verne

Airport
ICAO code
KPOC
Summary
ICAO Region
NAM
ICAO Territory
Location

La Verne, California,

Coordinates
34° 5' 29" N , 117° 46' 54" W
KCC
Metar
Observation
KPOC 241347Z 00000KT 10SM CLR 20/13 A3001
Station
La Verne / Brackett
Date/Time
2022-09-24 13:47:00
Wind direction
Wind speed
00 kts
Lowest cloud amount
n/a
Temperature
20°C
Dew point
13°C
Humidity
64%
Weather condition
n/a

Description

La Verne Airport, also known as Brackett Field, is a public airport located 2 km southwest of La Verne, in Los Angeles County, California, USA.

Climatology

Mediterranean climate or Dry-Summer Subtropical (Köppen climate classification Csa) - Summers are warm to hot and dry. Winters are mild and somewhat rainy. Spring and autumn bring mild days with cool evenings and are generally dry.

Runways

Designator Length Width Surface Rops
08L/26R 1116 23 ASP Yes/Yes
08R/26L 1475 23 ASP Yes/Yes

Airport map

Aerial View

SKYbrary Partners:

Safety knowledge contributed by: